Time;durP1;ratioP1;P1;durP2;ratioP2;P2;SDS_P1;SDS_P2;PMS_P1;PMS_P2;Temp;Humidity;BMP_temperature;BMP_pressure;BME280_temperature;BME280_humidity;BME280_pressure;Samples;Min_cycle;Max_cycle;Signal;HPM_P1;HPM_P2
2022/05/02 00:00:28;;;;;;;26.63;16.60;;;;;;;6.11;100.00;101976.25;5106460;28;20020;-63
2022/05/02 00:02:54;;;;;;;26.05;16.20;;;;;;;6.05;100.00;101978.63;5107087;28;20027;-63
2022/05/02 00:05:20;;;;;;;27.48;16.17;;;;;;;6.02;100.00;101976.75;5105168;28;20083;-63
2022/05/02 00:07:45;;;;;;;26.00;16.17;;;;;;;6.05;100.00;101973.38;5108008;28;20032;-63
2022/05/02 00:10:12;;;;;;;26.15;16.48;;;;;;;5.93;100.00;101972.00;5105092;28;20072;-64
2022/05/02 00:12:37;;;;;;;27.63;16.30;;;;;;;5.88;100.00;101976.19;5107470;28;20473;-63
2022/05/02 00:15:03;;;;;;;25.50;15.93;;;;;;;5.89;100.00;101959.56;5104200;28;20035;-63
2022/05/02 00:20:12;;;;;;;26.35;16.95;;;;;;;5.75;100.00;101963.34;5104920;28;20074;-65
2022/05/02 00:22:38;;;;;;;26.65;16.83;;;;;;;5.64;100.00;101967.28;5107385;28;20055;-63
2022/05/02 00:25:04;;;;;;;27.38;17.20;;;;;;;5.60;100.00;101963.59;5105473;28;20035;-64
2022/05/02 00:27:30;;;;;;;27.17;17.48;;;;;;;5.47;100.00;101959.56;5106268;28;20515;-68
2022/05/02 00:29:55;;;;;;;26.70;17.45;;;;;;;5.47;100.00;101954.31;5106188;28;20636;-65
2022/05/02 00:32:20;;;;;;;26.45;17.55;;;;;;;5.46;100.00;101956.88;5104781;28;20493;-65
2022/05/02 00:34:45;;;;;;;26.60;16.90;;;;;;;5.44;100.00;101951.56;5107741;28;20019;-64
2022/05/02 00:37:11;;;;;;;25.85;16.60;;;;;;;5.49;100.00;101957.91;5104112;28;20450;-66
2022/05/02 00:39:36;;;;;;;26.70;16.27;;;;;;;5.56;100.00;101954.72;5107100;28;20031;-65
2022/05/02 00:42:02;;;;;;;26.80;16.85;;;;;;;5.54;100.00;101951.13;5105466;27;20028;-70
2022/05/02 00:44:27;;;;;;;27.45;17.13;;;;;;;5.47;100.00;101946.44;5105448;28;20027;-68
2022/05/02 00:46:53;;;;;;;27.02;17.40;;;;;;;5.53;100.00;101951.06;5106275;28;20085;-65
2022/05/02 00:49:19;;;;;;;27.73;17.10;;;;;;;5.36;100.00;101940.75;5104361;28;20039;-69
2022/05/02 00:51:44;;;;;;;27.63;17.23;;;;;;;5.21;100.00;101945.31;5107231;28;20390;-69
2022/05/02 00:54:10;;;;;;;26.98;17.13;;;;;;;5.11;100.00;101938.78;5103937;28;20058;-65
2022/05/02 00:56:35;;;;;;;26.98;17.23;;;;;;;5.11;100.00;101940.50;5106146;28;20081;-67
2022/05/02 00:59:01;;;;;;;28.52;17.58;;;;;;;5.02;100.00;101939.28;5105254;28;20027;-67
2022/05/02 01:01:26;;;;;;;27.50;17.88;;;;;;;4.87;100.00;101939.47;5105084;28;20527;-64
2022/05/02 01:03:51;;;;;;;28.48;18.30;;;;;;;4.86;100.00;101940.31;5106031;28;20034;-66
2022/05/02 01:09:02;;;;;;;29.40;19.73;;;;;;;4.72;100.00;101939.69;5104984;28;20057;-63
2022/05/02 01:11:29;;;;;;;28.58;19.92;;;;;;;4.71;100.00;101942.22;5105407;28;20028;-67
2022/05/02 01:13:54;;;;;;;28.92;20.02;;;;;;;4.79;100.00;101940.88;5105822;28;20110;-66
2022/05/02 01:16:25;;;;;;;28.10;18.85;;;;;;;4.79;100.00;101939.97;5103807;28;20060;-67
2022/05/02 01:18:54;;;;;;;28.60;19.58;;;;;;;4.83;100.00;101939.28;5106099;27;20039;-65
2022/05/02 01:21:21;;;;;;;30.02;19.25;;;;;;;4.81;100.00;101941.81;5103627;28;20028;-65
2022/05/02 01:23:49;;;;;;;28.80;19.33;;;;;;;4.84;100.00;101941.97;5106832;28;20103;-63
2022/05/02 01:26:15;;;;;;;29.92;21.15;;;;;;;4.75;100.00;101938.94;5103241;28;20026;-62
2022/05/02 01:28:45;;;;;;;30.52;21.10;;;;;;;4.75;100.00;101931.06;5106399;28;20027;-63
2022/05/02 01:31:11;;;;;;;30.65;21.45;;;;;;;4.63;100.00;101926.19;5101424;28;20036;-62
2022/05/02 01:33:36;;;;;;;30.80;20.55;;;;;;;4.65;100.00;101932.38;5106083;28;20020;-63
2022/05/02 01:36:03;;;;;;;30.02;20.73;;;;;;;4.56;100.00;101929.34;5103095;28;20038;-62
2022/05/02 01:38:28;;;;;;;29.75;20.88;;;;;;;4.46;100.00;101933.25;5104285;28;20032;-63
2022/05/02 01:40:54;;;;;;;30.60;21.50;;;;;;;4.44;100.00;101934.00;5105493;27;20043;-63
2022/05/02 01:43:19;;;;;;;31.00;21.02;;;;;;;4.47;100.00;101932.44;5103054;28;20109;-63
2022/05/02 01:45:44;;;;;;;31.77;22.75;;;;;;;4.49;100.00;101924.63;5106300;28;20027;-62
2022/05/02 01:48:09;;;;;;;30.65;21.65;;;;;;;4.37;100.00;101930.22;5102810;28;20402;-62
2022/05/02 01:50:35;;;;;;;30.50;21.50;;;;;;;4.30;100.00;101929.00;5105028;28;20067;-63
2022/05/02 01:53:00;;;;;;;31.55;21.20;;;;;;;4.29;100.00;101929.81;5104424;28;20047;-63
2022/05/02 01:55:26;;;;;;;30.98;21.60;;;;;;;4.33;100.00;101925.66;5103496;28;20020;-62
2022/05/02 01:57:51;;;;;;;30.80;21.55;;;;;;;4.29;100.00;101923.69;5105223;28;20027;-63
2022/05/02 02:00:17;;;;;;;30.48;21.40;;;;;;;4.27;100.00;101926.25;5102630;28;20024;-62
2022/05/02 02:02:42;;;;;;;30.38;20.88;;;;;;;4.23;100.00;101920.81;5102123;28;20107;-62
2022/05/02 02:07:51;;;;;;;30.40;20.52;;;;;;;4.13;100.00;101919.47;5102860;28;20051;-62
2022/05/02 02:10:17;;;;;;;29.67;20.08;;;;;;;4.06;100.00;101909.53;5106001;28;20466;-62
2022/05/02 02:12:42;;;;;;;29.20;20.00;;;;;;;4.09;100.00;101917.50;5102209;28;20467;-62
2022/05/02 02:15:08;;;;;;;30.00;20.55;;;;;;;4.09;100.00;101920.13;5104917;28;20035;-62
2022/05/02 02:17:33;;;;;;;29.13;19.25;;;;;;;4.04;100.00;101914.69;5103615;28;20031;-62
2022/05/02 02:19:59;;;;;;;29.50;19.67;;;;;;;4.04;100.00;101919.03;5103603;28;20043;-63
2022/05/02 02:22:24;;;;;;;28.45;19.58;;;;;;;4.06;100.00;101923.50;5104587;28;20023;-65
2022/05/02 02:24:50;;;;;;;29.30;20.73;;;;;;;3.89;100.00;101920.06;5102678;28;20158;-62
2022/05/02 02:27:15;;;;;;;29.58;20.95;;;;;;;3.88;100.00;101922.63;5105400;28;20058;-62
2022/05/02 02:29:41;;;;;;;31.63;22.08;;;;;;;3.76;100.00;101915.06;5102248;28;20028;-63
2022/05/02 02:32:07;;;;;;;32.42;22.15;;;;;;;3.72;100.00;101916.63;5104666;28;21023;-63
2022/05/02 02:34:32;;;;;;;30.42;22.25;;;;;;;3.65;100.00;101914.53;5103303;28;20024;-62
2022/05/02 02:36:58;;;;;;;30.73;21.42;;;;;;;3.59;100.00;101919.47;5103251;28;20024;-63
2022/05/02 02:39:23;;;;;;;30.55;20.95;;;;;;;3.53;100.00;101919.16;5104231;28;20031;-62
2022/05/02 02:41:48;;;;;;;30.40;21.70;;;;;;;3.53;100.00;101921.78;5101839;28;20020;-62
2022/05/02 02:44:14;;;;;;;32.95;22.40;;;;;;;3.51;100.00;101918.16;5105145;28;20063;-63
2022/05/02 02:46:39;;;;;;;30.95;22.65;;;;;;;3.54;100.00;101910.47;5101630;28;20143;-62
2022/05/02 02:49:04;;;;;;;30.65;22.75;;;;;;;3.55;100.00;101912.28;5103936;28;20769;-62
2022/05/02 02:51:30;;;;;;;31.33;21.15;;;;;;;3.64;100.00;101908.41;5103396;28;20031;-63
2022/05/02 02:53:55;;;;;;;31.58;21.88;;;;;;;3.63;100.00;101905.72;5102516;28;20024;-62
2022/05/02 02:56:20;;;;;;;30.92;21.60;;;;;;;3.59;100.00;101906.38;5104354;28;20020;-62
2022/05/02 02:58:46;;;;;;;30.60;22.50;;;;;;;3.62;100.00;101902.19;5101455;28;20032;-63
2022/05/02 03:01:11;;;;;;;31.60;22.85;;;;;;;3.57;100.00;101890.63;5104658;28;20440;-63
2022/05/02 03:03:37;;;;;;;30.85;22.13;;;;;;;3.57;100.00;101889.69;5101858;28;20024;-62
2022/05/02 03:06:03;;;;;;;30.40;21.20;;;;;;;3.60;100.00;101889.88;5103643;28;20074;-62
2022/05/02 03:08:32;;;;;;;29.88;20.98;;;;;;;3.57;100.00;101892.31;5102212;28;20027;-62
2022/05/02 03:10:57;;;;;;;31.85;21.67;;;;;;;3.48;100.00;101893.66;5102548;28;20527;-63
2022/05/02 03:13:23;;;;;;;31.48;21.35;;;;;;;3.43;100.00;101892.53;5104136;28;20106;-66
2022/05/02 03:15:49;;;;;;;30.75;21.17;;;;;;;3.48;100.00;101892.75;5101444;28;20474;-63
2022/05/02 03:18:14;;;;;;;32.58;22.48;;;;;;;3.41;100.00;101899.41;5104956;28;20050;-62
2022/05/02 03:20:39;;;;;;;32.75;22.52;;;;;;;3.38;100.00;101888.81;5101544;28;20374;-62
2022/05/02 03:23:05;;;;;;;33.55;23.00;;;;;;;3.23;100.00;101888.94;5105193;28;20031;-63
2022/05/02 03:25:30;;;;;;;30.77;22.05;;;;;;;3.22;100.00;101894.06;5103198;28;20019;-62
2022/05/02 03:27:55;;;;;;;31.15;21.33;;;;;;;3.13;100.00;101897.09;5103373;28;20019;-62
2022/05/02 03:30:22;;;;;;;31.90;22.35;;;;;;;3.09;100.00;101887.31;5101343;28;20020;-63
2022/05/02 03:32:47;;;;;;;33.90;23.15;;;;;;;3.07;100.00;101887.25;5104725;28;20160;-62
2022/05/02 03:35:13;;;;;;;32.47;23.25;;;;;;;3.06;100.00;101884.53;5100795;28;20106;-63
2022/05/02 03:37:38;;;;;;;31.70;22.95;;;;;;;3.07;100.00;101884.63;5103715;28;20027;-62
2022/05/02 03:40:05;;;;;;;32.60;23.52;;;;;;;3.16;100.00;101883.28;5102731;28;20020;-62
2022/05/02 03:42:30;;;;;;;30.90;22.02;;;;;;;3.11;100.00;101877.84;5102502;28;20391;-63
2022/05/02 03:44:55;;;;;;;32.47;22.45;;;;;;;3.11;100.00;101880.44;5103260;28;20019;-62
2022/05/02 03:47:21;;;;;;;31.30;22.05;;;;;;;3.09;100.00;101882.09;5101189;28;20402;-65
2022/05/02 03:49:46;;;;;;;31.98;22.67;;;;;;;3.01;100.00;101886.91;5104322;28;20024;-65
2022/05/02 03:52:11;;;;;;;31.42;22.05;;;;;;;3.03;100.00;101885.28;5101042;28;20017;-63
2022/05/02 03:54:37;;;;;;;32.85;22.10;;;;;;;3.02;100.00;101885.22;5103852;28;20028;-70
2022/05/02 03:57:02;;;;;;;30.80;21.90;;;;;;;3.02;100.00;101880.88;5102153;28;20071;-69
2022/05/02 03:59:28;;;;;;;30.15;21.33;;;;;;;3.00;100.00;101892.06;5102294;28;20016;-65
2022/05/02 04:01:53;;;;;;;30.85;22.42;;;;;;;2.89;100.00;101891.50;5102186;28;20036;-64
2022/05/02 04:04:18;;;;;;;32.10;22.17;;;;;;;2.91;100.00;101889.88;5100655;28;20076;-64
2022/05/02 04:06:44;;;;;;;30.98;22.05;;;;;;;2.92;100.00;101886.44;5104553;28;20057;-66
2022/05/02 04:09:09;;;;;;;30.52;21.60;;;;;;;2.93;100.00;101893.47;5100996;28;20111;-65
2022/05/02 04:11:34;;;;;;;31.75;22.58;;;;;;;2.89;100.00;101883.69;5102841;28;20032;-69
2022/05/02 04:14:00;;;;;;;32.25;23.60;;;;;;;2.89;100.00;101888.91;5102770;28;20027;-64
2022/05/02 04:16:25;;;;;;;33.45;23.63;;;;;;;2.93;100.00;101885.63;5101609;28;20024;-66
2022/05/02 04:18:50;;;;;;;31.33;23.20;;;;;;;2.96;100.00;101883.19;5105111;28;20036;-66
2022/05/02 04:21:16;;;;;;;31.65;22.67;;;;;;;3.05;100.00;101888.88;5104481;28;20419;-67
2022/05/02 04:23:41;;;;;;;33.60;22.50;;;;;;;3.04;100.00;101889.69;5107479;28;20023;-68
2022/05/02 04:26:06;;;;;;;32.67;23.48;;;;;;;3.09;100.00;101890.81;5105129;28;20493;-62
2022/05/02 04:28:34;;;;;;;33.08;23.73;;;;;;;3.06;100.00;101889.75;5106257;28;20154;-62
2022/05/02 04:30:59;;;;;;;32.10;22.08;;;;;;;3.06;100.00;101895.91;5105938;28;20470;-62
2022/05/02 04:33:24;;;;;;;33.80;23.48;;;;;;;3.08;100.00;101883.78;5104982;28;20034;-62
2022/05/02 04:35:50;;;;;;;32.35;22.67;;;;;;;2.99;100.00;101888.56;5107332;28;20022;-62
2022/05/02 04:38:15;;;;;;;33.47;24.48;;;;;;;2.90;100.00;101888.97;5103705;28;20064;-62
2022/05/02 04:40:40;;;;;;;35.15;23.45;;;;;;;2.89;100.00;101888.91;5107445;28;20061;-63
2022/05/02 04:43:06;;;;;;;34.17;23.77;;;;;;;2.93;100.00;101890.84;5105271;28;20406;-63
2022/05/02 04:45:31;;;;;;;33.60;23.45;;;;;;;2.99;100.00;101888.56;5105657;28;20016;-62
2022/05/02 04:47:57;;;;;;;32.50;24.15;;;;;;;3.00;100.00;101885.13;5106250;28;20039;-62
2022/05/02 04:50:23;;;;;;;34.58;24.00;;;;;;;3.04;100.00;101891.41;5104158;28;20081;-62
2022/05/02 04:52:49;;;;;;;33.33;24.52;;;;;;;3.08;100.00;101891.63;5106998;28;20028;-62
2022/05/02 04:55:14;;;;;;;33.22;24.73;;;;;;;3.15;100.00;101892.84;5103870;28;20619;-62
2022/05/02 04:57:40;;;;;;;34.67;25.52;;;;;;;3.16;100.00;101891.13;5106577;28;20035;-62
2022/05/02 05:00:06;;;;;;;33.92;24.20;;;;;;;3.22;100.00;101896.66;5103738;28;20497;-63
2022/05/02 05:02:31;;;;;;;33.58;25.38;;;;;;;3.28;100.00;101891.78;5105481;28;20024;-62
2022/05/02 05:04:57;;;;;;;36.20;26.23;;;;;;;3.38;100.00;101898.34;5106105;28;20028;-62
2022/05/02 05:07:22;;;;;;;35.25;25.75;;;;;;;3.49;100.00;101898.09;5103698;28;20055;-62
2022/05/02 05:09:47;;;;;;;40.55;25.42;;;;;;;3.57;100.00;101898.47;5106973;28;20038;-62
2022/05/02 05:12:33;;;;;;;36.90;25.60;;;;;;;3.61;100.00;101902.13;5103428;28;20027;-62
2022/05/02 05:17:55;;;;;;;34.22;24.42;;;;;;;3.76;100.00;101894.16;5103565;28;20086;-63
2022/05/02 05:20:38;;;;;;;37.28;24.52;;;;;;;3.78;100.00;101898.59;5106324;28;20031;-63
2022/05/02 05:23:31;;;;;;;36.30;24.67;;;;;;;3.93;100.00;101894.94;5105390;28;20399;-63
2022/05/02 05:25:59;;;;;;;;;;;;;;;4.04;100.00;101898.97;5104504;28;20024;-62
2022/05/02 05:28:30;;;;;;;36.15;26.15;;;;;;;4.23;100.00;101894.63;5105991;28;19915;-63
2022/05/02 05:31:18;;;;;;;38.78;26.88;;;;;;;4.37;100.00;101896.16;5103325;28;20394;-63
2022/05/02 05:34:01;;;;;;;39.00;26.33;;;;;;;4.54;100.00;101897.84;5103243;28;20115;-62
2022/05/02 05:36:51;;;;;;;42.53;29.05;;;;;;;4.64;100.00;101893.91;5100703;28;20058;-70
2022/05/02 05:39:47;;;;;;;46.00;32.10;;;;;;;4.79;100.00;101892.78;5113356;28;20024;-69
2022/05/02 05:42:35;;;;;;;44.33;32.03;;;;;;;4.89;100.00;101892.38;5111374;28;20020;-67
2022/05/02 05:45:14;;;;;;;45.17;34.22;;;;;;;5.04;100.00;101887.81;5113937;28;20034;-68
2022/05/02 05:47:40;;;;;;;44.47;34.38;;;;;;;5.19;100.00;101889.31;5110594;28;20055;-69
2022/05/02 05:50:11;;;;;;;44.03;33.53;;;;;;;5.33;100.00;101898.66;5113523;28;20020;-70
2022/05/02 05:52:52;;;;;;;45.72;34.80;;;;;;;5.45;100.00;101900.03;5111266;28;20130;-72
2022/05/02 05:55:27;;;;;;;46.13;36.83;;;;;;;5.58;100.00;101900.59;5111968;28;20023;-70
2022/05/02 05:58:45;;;;;;;43.83;36.22;;;;;;;5.68;100.00;101900.97;5112810;28;20031;-65
2022/05/02 06:01:14;;;;;;;44.05;36.05;;;;;;;5.82;100.00;101902.41;5070843;28;20044;-68
2022/05/02 06:04:03;;;;;;;43.85;35.53;;;;;;;5.90;100.00;101906.25;5054445;28;20436;-70
2022/05/02 06:06:29;;;;;;;43.55;35.33;;;;;;;6.01;100.00;101903.19;5070001;28;20087;-71
2022/05/02 06:08:58;;;;;;;45.53;36.70;;;;;;;6.12;100.00;101907.16;5070145;28;20452;-67
2022/05/02 06:11:28;;;;;;;45.28;36.25;;;;;;;6.20;100.00;101897.81;5070615;28;20483;-66
2022/05/02 06:13:55;;;;;;;44.55;36.13;;;;;;;6.31;100.00;101905.25;5070519;28;20031;-66
2022/05/02 06:19:13;;;;;;;45.28;35.95;;;;;;;6.49;100.00;101905.06;5070284;28;20086;-68
2022/05/02 06:21:46;;;;;;;43.47;35.58;;;;;;;6.59;100.00;101907.19;5053702;28;20028;-67
2022/05/02 06:24:13;;;;;;;53.33;35.83;;;;;;;6.79;100.00;101910.56;5070588;28;20028;-68
2022/05/02 06:26:40;;;;;;;43.33;34.15;;;;;;;6.90;100.00;101913.56;5070208;28;20036;-68
2022/05/02 06:29:09;;;;;;;44.70;34.30;;;;;;;7.02;100.00;101913.13;5069064;28;21617;-67
2022/05/02 06:31:36;;;;;;;46.33;35.35;;;;;;;7.15;100.00;101912.75;5070065;28;20040;-69
2022/05/02 06:34:03;;;;;;;43.75;35.30;;;;;;;7.29;100.00;101913.22;5069124;28;20127;-69
2022/05/02 06:36:35;;;;;;;43.95;32.78;;;;;;;7.40;100.00;101901.34;5075479;28;20036;-67
2022/05/02 06:39:16;;;;;;;39.70;31.80;;;;;;;7.51;100.00;101912.22;5107257;28;20403;-68
2022/05/02 06:42:09;;;;;;;41.28;32.50;;;;;;;7.60;100.00;101909.00;5111630;28;20038;-68
2022/05/02 06:45:02;;;;;;;39.58;31.40;;;;;;;7.67;100.00;101911.91;5110601;28;20035;-70
2022/05/02 06:47:27;;;;;;;39.45;32.00;;;;;;;7.78;100.00;101906.09;5109458;28;20476;-64
2022/05/02 06:49:57;;;;;;;40.78;31.25;;;;;;;7.83;100.00;101904.50;5111913;28;20122;-66
2022/05/02 06:52:32;;;;;;;38.97;30.90;;;;;;;7.99;100.00;101906.78;5112338;28;20077;-65
2022/05/02 06:55:13;;;;;;;41.92;31.10;;;;;;;8.13;100.00;101911.59;5110000;28;20024;-66
2022/05/02 06:58:06;;;;;;;39.17;29.63;;;;;;;8.23;100.00;101903.13;5111142;28;20397;-70
2022/05/02 07:00:37;;;;;;;36.53;28.95;;;;;;;8.39;100.00;101904.50;5102110;28;20028;-72
2022/05/02 07:03:08;;;;;;;43.15;30.85;;;;;;;8.51;100.00;101904.00;5108947;27;20073;-69
2022/05/02 07:05:46;;;;;;;37.22;28.40;;;;;;;8.59;100.00;101905.13;5112408;28;20035;-70
2022/05/02 07:08:22;;;;;;;38.42;28.83;;;;;;;8.73;100.00;101901.13;5110768;28;20032;-71
2022/05/02 07:10:53;;;;;;;36.53;28.00;;;;;;;8.79;100.00;101904.78;5111494;28;20019;-71
2022/05/02 07:13:45;;;;;;;36.72;27.40;;;;;;;8.89;100.00;101907.72;5111018;28;20020;-69
2022/05/02 07:16:19;;;;;;;36.92;27.05;;;;;;;9.05;100.00;101909.03;5109536;28;20016;-68
2022/05/02 07:19:12;;;;;;;34.97;25.27;;;;;;;9.17;100.00;101902.31;5101342;28;20032;-73
2022/05/02 07:21:41;;;;;;;;;;;;;;;9.22;100.00;101906.88;5101927;28;20406;-71
2022/05/02 07:24:41;;;;;;;37.92;25.13;;;;;;;9.38;100.00;101896.75;5101126;28;19916;-71
2022/05/02 07:27:14;;;;;;;42.85;23.92;;;;;;;9.55;100.00;101915.63;5098481;28;20031;-69
2022/05/02 07:29:42;;;;;;;36.03;25.42;;;;;;;9.66;100.00;101900.97;5105278;28;20020;-69
2022/05/02 07:32:10;;;;;;;36.58;25.83;;;;;;;9.69;100.00;101898.38;5101052;28;20046;-71
2022/05/02 07:34:38;;;;;;;33.30;24.05;;;;;;;9.79;100.00;101901.28;5101423;28;20157;-69
2022/05/02 07:37:05;;;;;;;35.22;23.23;;;;;;;9.92;100.00;101906.88;5101026;28;20042;-68
2022/05/02 07:39:33;;;;;;;37.50;25.27;;;;;;;10.02;100.00;101897.44;5098215;28;20028;-72
2022/05/02 07:42:00;;;;;;;40.03;23.27;;;;;;;10.21;100.00;101898.75;5106813;28;20027;-69
2022/05/02 07:44:30;;;;;;;33.67;22.25;;;;;;;10.35;100.00;101906.13;5111509;28;20502;-71
2022/05/02 07:46:58;;;;;;;33.10;23.02;;;;;;;10.42;100.00;101897.47;5111243;28;20096;-68
2022/05/02 07:49:27;;;;;;;32.05;22.48;;;;;;;10.49;100.00;101898.50;5111366;28;20474;-70
2022/05/02 07:51:54;;;;;;;31.92;21.60;;;;;;;10.63;100.00;101900.56;5110728;28;20024;-67
2022/05/02 07:54:25;;;;;;;29.55;20.83;;;;;;;10.67;100.00;101906.78;5113882;28;20474;-68
2022/05/02 07:56:51;;;;;;;33.42;20.52;;;;;;;10.74;100.00;101911.34;5115920;27;20035;-67
2022/05/02 07:59:20;;;;;;;38.20;20.48;;;;;;;10.93;100.00;101909.09;5115615;27;20072;-65
2022/05/02 08:01:45;;;;;;;32.97;18.88;;;;;;;11.06;100.00;101903.16;5114108;28;20024;-65
2022/05/02 08:04:12;;;;;;;31.10;19.88;;;;;;;11.20;100.00;101910.47;5115475;28;20026;-67
2022/05/02 08:07:02;;;;;;;29.35;19.27;;;;;;;11.35;100.00;101910.75;5115698;28;20111;-65
2022/05/02 08:09:58;;;;;;;30.95;20.23;;;;;;;11.52;100.00;101904.00;5113880;28;20054;-65
2022/05/02 08:12:31;;;;;;;35.47;19.25;;;;;;;11.76;100.00;101904.41;5107864;28;20031;-66
2022/05/02 08:15:12;;;;;;;29.95;18.70;;;;;;;11.99;100.00;101905.69;5104437;27;20028;-68
2022/05/02 08:18:01;;;;;;;29.90;18.15;;;;;;;12.68;100.00;101902.19;5105846;28;20024;-63
2022/05/02 08:20:53;;;;;;;28.25;16.33;;;;;;;13.95;100.00;101899.06;5104883;28;20028;-63
2022/05/02 08:29:47;;;;;;;50.60;18.13;;;;;;;15.71;75.17;101904.13;5084797;28;20056;-64
2022/05/02 08:32:36;;;;;;;29.48;15.80;;;;;;;16.17;74.06;101898.78;5085857;28;20510;-66
2022/05/02 08:35:22;;;;;;;28.95;15.85;;;;;;;16.49;69.16;101901.34;5081653;28;20036;-65
2022/05/02 08:37:56;;;;;;;28.33;15.27;;;;;;;16.90;60.79;101897.63;5082230;28;20032;-65
2022/05/02 08:40:24;;;;;;;25.02;15.20;;;;;;;17.22;46.54;101898.34;5084742;28;20028;-65
2022/05/02 08:43:05;;;;;;;25.13;15.55;;;;;;;17.06;47.02;101903.78;5081986;28;20479;-64
2022/05/02 08:45:39;;;;;;;32.33;15.25;;;;;;;17.64;47.69;101901.59;5085762;28;20031;-65
2022/05/02 08:49:32;;;;;;;23.80;13.30;;;;;;;18.22;43.89;101899.31;5077761;28;20044;-64
2022/05/02 08:52:07;;;;;;;29.45;14.02;;;;;;;18.96;43.33;101895.72;5084686;28;20048;-64
2022/05/02 08:54:57;;;;;;;25.13;14.18;;;;;;;18.96;38.82;101898.41;5041256;28;20091;-64
2022/05/02 08:57:41;;;;;;;25.38;14.38;;;;;;;19.58;39.27;101892.13;5043526;28;20117;-65
2022/05/02 09:00:16;;;;;;;24.45;14.98;;;;;;;19.65;37.62;101894.66;5046893;28;20040;-64
2022/05/02 09:03:09;;;;;;;27.98;14.02;;;;;;;19.60;37.14;101890.28;5064364;28;20021;-65
2022/05/02 09:05:43;;;;;;;26.02;13.77;;;;;;;17.93;38.78;101897.81;5058393;28;20045;-64
2022/05/02 09:08:14;;;;;;;26.27;13.60;;;;;;;17.26;39.87;101892.09;5061382;28;20103;-70
2022/05/02 09:11:31;;;;;;;29.30;11.75;;;;;;;17.12;42.18;101888.63;5068968;28;21205;-71
2022/05/02 09:14:18;;;;;;;24.00;11.63;;;;;;;17.22;39.87;101893.00;5060798;28;20490;-71
2022/05/02 09:17:07;;;;;;;33.42;13.80;;;;;;;18.12;38.59;101880.66;5061494;28;20025;-70
2022/05/02 09:19:51;;;;;;;33.08;14.05;;;;;;;19.24;36.64;101885.50;5059485;28;20052;-65
2022/05/02 09:22:40;;;;;;;27.52;13.60;;;;;;;20.42;35.00;101896.91;5061075;28;20020;-66
2022/05/02 09:25:08;;;;;;;24.88;11.77;;;;;;;20.60;33.16;101892.94;5064778;28;20090;-65
2022/05/02 09:27:53;;;;;;;29.65;12.35;;;;;;;20.67;33.27;101889.25;5071147;28;20078;-65
2022/05/02 09:30:34;;;;;;;23.85;12.40;;;;;;;21.18;30.76;101878.22;5074358;28;20867;-66
2022/05/02 09:33:04;;;;;;;23.08;12.63;;;;;;;21.68;30.92;101871.66;5107632;28;20044;-65
2022/05/02 09:35:34;;;;;;;25.27;13.25;;;;;;;21.99;32.15;101878.91;5113648;28;20042;-69
2022/05/02 09:38:13;;;;;;;23.95;12.10;;;;;;;22.58;30.09;101878.19;5113540;28;20423;-71
2022/05/02 09:40:41;;;;;;;25.10;12.77;;;;;;;23.45;28.41;101876.41;5113909;28;20023;-70
2022/05/02 09:43:12;;;;;;;23.70;12.23;;;;;;;23.82;27.51;101878.72;5114098;28;20099;-70
2022/05/02 09:52:09;;;;;;;24.35;11.45;;;;;;;24.93;26.81;101864.75;5111679;28;20456;-69
2022/05/02 09:58:11;;;;;;;23.85;12.48;;;;;;;26.18;25.68;101862.22;5111924;28;20177;-69
2022/05/02 10:03:28;;;;;;;23.25;11.90;;;;;;;26.13;24.71;101857.03;5113929;28;20042;-70
2022/05/02 10:06:29;;;;;;;23.58;12.73;;;;;;;26.45;24.83;101855.53;5112480;28;20030;-70
2022/05/02 10:09:11;;;;;;;35.65;13.05;;;;;;;26.10;24.89;101859.88;5067335;28;20044;-69
2022/05/02 10:12:12;;;;;;;29.00;12.32;;;;;;;27.23;24.13;101860.88;5068964;28;20055;-70
2022/05/02 10:15:12;;;;;;;22.73;10.90;;;;;;;28.50;23.41;101851.59;4990453;28;20039;-70
2022/05/02 10:18:22;;;;;;;22.27;10.70;;;;;;;28.56;22.78;101858.50;4990508;28;20041;-70
2022/05/02 10:21:08;;;;;;;21.42;11.07;;;;;;;28.80;21.76;101851.72;4990469;28;20096;-66
2022/05/02 10:23:50;;;;;;;22.80;11.20;;;;;;;28.64;22.00;101856.28;4981194;28;20023;-66
2022/05/02 10:26:40;;;;;;;22.15;11.07;;;;;;;28.63;21.25;101849.06;4981772;28;20412;-66
2022/05/02 10:29:17;;;;;;;23.20;10.65;;;;;;;28.55;22.17;101841.31;4981300;28;20498;-66
2022/05/02 10:31:51;;;;;;;23.73;10.48;;;;;;;29.08;21.69;101847.44;4982021;28;20038;-68
2022/05/02 10:34:20;;;;;;;22.42;10.98;;;;;;;29.35;19.52;101842.22;4982451;28;20344;-67
2022/05/02 10:36:50;;;;;;;23.58;10.07;;;;;;;29.33;19.95;101840.53;4981330;28;20068;-66
2022/05/02 10:39:38;;;;;;;22.75;10.38;;;;;;;29.77;20.20;101845.16;4984763;28;20041;-67
2022/05/02 10:42:06;;;;;;;23.23;10.30;;;;;;;29.81;19.14;101833.13;4981777;28;20034;-66
2022/05/02 10:44:42;;;;;;;30.65;10.90;;;;;;;30.27;19.70;101837.53;4982576;28;20125;-66
2022/05/02 10:47:11;;;;;;;38.80;11.48;;;;;;;29.95;19.28;101832.28;5020777;28;20055;-71
2022/05/02 10:49:45;;;;;;;22.50;10.82;;;;;;;29.63;18.89;101828.78;5023422;28;20088;-66
2022/05/02 10:52:25;;;;;;;21.05;10.15;;;;;;;29.82;20.27;101829.44;5078171;28;20041;-66
2022/05/02 10:55:05;;;;;;;26.08;10.60;;;;;;;29.63;19.71;101826.94;5102795;28;20028;-66
2022/05/02 10:57:44;;;;;;;22.27;10.15;;;;;;;29.64;19.64;101830.56;5102326;28;20055;-66
2022/05/02 11:00:12;;;;;;;20.95;10.30;;;;;;;30.14;17.79;101818.38;5101539;28;20028;-65
2022/05/02 11:02:37;;;;;;;24.80;10.07;;;;;;;31.17;18.30;101813.53;5104871;28;20030;-66
2022/05/02 11:05:07;;;;;;;20.90;10.63;;;;;;;31.53;17.81;101816.56;5101762;28;20024;-66
2022/05/02 11:07:41;;;;;;;22.95;11.02;;;;;;;31.43;18.38;101817.22;5104970;28;20024;-65
2022/05/02 11:10:09;;;;;;;24.38;10.32;;;;;;;31.81;17.50;101813.69;5101434;28;20576;-66
2022/05/02 11:12:49;;;;;;;25.65;10.60;;;;;;;31.87;17.89;101815.13;5101229;28;20504;-66
2022/05/02 11:15:21;;;;;;;20.85;10.18;;;;;;;31.86;16.77;101810.63;5102125;28;20386;-66
2022/05/02 11:18:04;;;;;;;;;;;;;;;32.92;17.07;101813.00;5103910;28;20465;-66
2022/05/02 11:20:41;;;;;;;23.70;9.90;;;;;;;31.50;17.18;101808.59;5104010;28;19976;-66
2022/05/02 11:23:15;;;;;;;26.00;10.95;;;;;;;31.61;16.83;101798.69;5101469;28;20378;-66
2022/05/02 11:26:10;;;;;;;24.95;10.50;;;;;;;31.86;17.26;101788.75;5101352;28;20371;-66
2022/05/02 11:29:05;;;;;;;21.65;10.07;;;;;;;31.98;17.60;101793.34;5102253;28;20470;-66
2022/05/02 11:31:39;;;;;;;20.50;9.68;;;;;;;31.92;17.45;101793.81;5108265;28;20377;-66
2022/05/02 11:34:29;;;;;;;20.02;9.93;;;;;;;32.25;17.08;101797.84;5105333;28;20039;-66
2022/05/02 11:36:58;;;;;;;21.67;10.18;;;;;;;32.73;16.76;101793.50;5107479;28;20028;-68
2022/05/02 11:39:57;;;;;;;22.50;10.07;;;;;;;33.40;17.01;101786.59;5102593;28;20546;-66
2022/05/02 11:42:28;;;;;;;27.40;10.80;;;;;;;32.70;16.16;101794.59;5107454;28;20024;-66
2022/05/02 11:45:17;;;;;;;24.63;10.40;;;;;;;32.61;16.82;101792.50;5106583;28;20020;-66
2022/05/02 11:47:54;;;;;;;28.20;10.75;;;;;;;33.17;16.09;101789.22;5105783;28;20286;-66
2022/05/02 11:50:24;;;;;;;22.58;9.63;;;;;;;33.59;15.68;101781.41;5106701;28;20035;-67
2022/05/02 11:52:55;;;;;;;20.35;9.95;;;;;;;33.69;14.74;101787.03;5109706;28;20497;-66
2022/05/02 11:55:29;;;;;;;20.63;9.85;;;;;;;33.67;15.09;101781.69;5105813;28;20024;-66
2022/05/02 11:58:02;;;;;;;21.60;10.50;;;;;;;33.47;15.71;101779.66;5105994;28;20034;-67
2022/05/02 12:00:36;;;;;;;20.58;10.35;;;;;;;33.66;14.98;101787.28;5106352;28;20111;-67
2022/05/02 12:03:19;;;;;;;20.98;10.13;;;;;;;33.15;15.34;101772.03;5104581;28;20031;-67
2022/05/02 12:05:54;;;;;;;23.27;10.07;;;;;;;33.78;15.39;101786.31;5106324;28;20040;-69